Phoenix, Arizona
Traffic Map
Current Weather Conditions
Phoenix, Arizona
Clear
Clear
33°
Feels Like: 33°
Wind Chill: 33° Ceiling: Unl
Heat Index: 33° Visibility: 10mi
Dew Point: -8° Wind: 5mph
Humidity: 6% Direction: 290° (WNW)
Pressure: 29.99in Gusts: 0mph
Raw Report DataKPHX 272151Z 29004KT 10SM CLR 33/M08 A2999 RMK AO2 SLP140 T03331083
Traffic Incident Summary
Active as of:
Severity:
Category:
InformationThere was an issue retrieving the traffic information for this location. Please try a different location or try again shortly.
Advertisements
Track Severe Weather on mobile